Time;durP1;ratioP1;P1;durP2;ratioP2;P2;SDS_P1;SDS_P2;PMS_P1;PMS_P2;Temp;Humidity;BMP_temperature;BMP_pressure;BME280_temperature;BME280_humidity;BME280_pressure;Samples;Min_cycle;Max_cycle;Signal;HPM_P1;HPM_P2
2022/01/26 00:06:32;;;;;;;57.38;25.08;;;4.90;99.90;;;;;;5054461;28;20107;-85
2022/01/26 00:08:59;;;;;;;53.78;25.80;;;5.70;99.90;;;;;;5024341;28;20057;-85
2022/01/26 00:11:25;;;;;;;63.20;28.95;;;4.70;99.90;;;;;;5036467;28;20041;-84
2022/01/26 00:13:51;;;;;;;59.85;29.73;;;4.80;99.90;;;;;;5053735;28;20702;-84
2022/01/26 00:16:40;;;;;;;60.80;30.10;;;4.50;99.90;;;;;;5054378;28;20041;-84
2022/01/26 00:19:06;;;;;;;48.42;24.30;;;5.00;99.90;;;;;;5053985;28;20119;-85
2022/01/26 00:21:36;;;;;;;45.75;26.00;;;5.70;99.90;;;;;;5037854;28;20044;-84
2022/01/26 00:26:37;;;;;;;64.22;26.52;;;4.70;99.90;;;;;;5046004;28;20041;-84
2022/01/26 00:29:12;;;;;;;44.97;20.30;;;4.40;99.90;;;;;;5053688;28;20053;-84
2022/01/26 00:40:00;;;;;;;50.78;25.75;;;6.30;99.90;;;;;;5050517;28;20064;-84
2022/01/26 00:42:28;;;;;;;60.55;29.67;;;3.70;99.90;;;;;;5034199;28;20048;-84
2022/01/26 00:44:54;;;;;;;62.25;28.35;;;3.90;99.90;;;;;;5052991;28;20099;-84
2022/01/26 00:47:20;;;;;;;59.00;28.77;;;4.60;99.90;;;;;;5037178;28;20489;-84
2022/01/26 00:49:45;;;;;;;62.95;28.83;;;4.40;99.90;;;;;;5053439;28;20037;-84
2022/01/26 00:52:14;;;;;;;61.72;28.05;;;4.90;99.90;;;;;;5053418;28;20507;-84
2022/01/26 00:54:40;;;;;;;72.65;35.10;;;5.20;99.90;;;;;;5036324;28;20098;-84
2022/01/26 00:57:06;;;;;;;82.78;35.80;;;5.20;99.90;;;;;;5024034;28;20045;-84
2022/01/26 00:59:32;;;;;;;81.63;35.45;;;5.30;99.90;;;;;;5036520;28;20467;-84
2022/01/26 01:01:58;;;;;;;107.07;47.78;;;5.50;99.90;;;;;;5036752;28;20053;-84
2022/01/26 01:04:24;;;;;;;98.82;46.58;;;6.10;99.90;;;;;;5036588;28;20044;-84
2022/01/26 01:06:56;;;;;;;94.03;45.30;;;4.50;99.90;;;;;;5052432;28;20083;-84
2022/01/26 01:09:23;;;;;;;90.75;43.70;;;5.70;99.90;;;;;;5052334;28;20049;-84
2022/01/26 01:11:55;;;;;;;91.63;43.42;;;5.60;99.90;;;;;;5036018;28;20056;-84
2022/01/26 01:14:21;;;;;;;106.85;47.90;;;6.10;99.90;;;;;;5032239;28;20095;-84
2022/01/26 01:16:46;;;;;;;82.25;39.67;;;5.60;99.90;;;;;;5044330;28;21528;-84
2022/01/26 01:19:29;;;;;;;89.55;40.83;;;5.80;99.90;;;;;;5052963;28;20045;-84
2022/01/26 01:22:18;;;;;;;90.47;44.55;;;6.60;99.90;;;;;;5039582;28;20564;-84
2022/01/26 01:25:22;;;;;;;82.90;42.10;;;7.70;99.90;;;;;;5059733;28;20081;-84
2022/01/26 01:32:50;;;;;;;76.53;34.83;;;5.70;99.90;;;;;;5068125;22;20055;-90
2022/01/26 01:35:16;;;;;;;81.57;42.38;;;5.90;99.90;;;;;;5036089;28;20098;-90
2022/01/26 01:37:42;;;;;;;66.55;32.70;;;3.10;99.90;;;;;;5035644;28;20053;-90
2022/01/26 01:40:09;;;;;;;49.60;25.92;;;4.80;99.90;;;;;;5035698;28;20052;-89
2022/01/26 01:42:35;;;;;;;69.20;30.30;;;4.80;99.90;;;;;;5036381;28;20422;-91
2022/01/26 01:45:00;;;;;;;80.35;39.80;;;6.90;99.90;;;;;;5036126;28;20048;-91
2022/01/26 01:47:27;;;;;;;80.60;42.97;;;7.20;99.90;;;;;;5036003;28;20131;-91
2022/01/26 01:49:53;;;;;;;73.45;37.45;;;3.70;99.90;;;;;;5035509;28;20055;-91
2022/01/26 01:52:19;;;;;;;79.95;36.40;;;7.20;99.90;;;;;;5052935;28;20397;-91
2022/01/26 01:54:50;;;;;;;72.32;37.72;;;4.80;99.90;;;;;;5052569;28;20056;-91
2022/01/26 01:57:23;;;;;;;69.25;33.83;;;5.70;99.90;;;;;;5036359;28;20051;-91
2022/01/26 01:59:49;;;;;;;59.25;29.95;;;5.20;99.90;;;;;;5051744;28;20132;-92
2022/01/26 02:02:15;;;;;;;71.55;35.92;;;5.30;99.90;;;;;;5036172;28;20045;-90
2022/01/26 02:04:41;;;;;;;70.15;36.28;;;8.00;99.90;;;;;;5035633;28;20568;-91
2022/01/26 02:07:07;;;;;;;63.80;32.75;;;5.10;99.90;;;;;;5052497;28;20079;-91
2022/01/26 02:09:33;;;;;;;69.47;33.88;;;6.90;99.90;;;;;;5034997;28;20080;-90
2022/01/26 02:12:01;;;;;;;57.30;27.27;;;5.60;99.90;;;;;;5035524;28;20098;-91
2022/01/26 02:14:33;;;;;;;63.10;33.85;;;5.40;99.90;;;;;;5035688;28;20041;-90
2022/01/26 02:17:12;;;;;;;81.72;39.63;;;6.30;99.90;;;;;;5035606;28;20572;-91
2022/01/26 02:49:46;;;;;;;58.42;29.67;;;4.30;99.90;;;;;;5051502;28;20044;-90
2022/01/26 02:52:33;;;;;;;70.50;36.10;;;7.10;99.90;;;;;;5034776;28;20451;-90
2022/01/26 02:55:22;;;;;;;57.85;29.58;;;5.30;99.90;;;;;;5051738;28;20056;-91
2022/01/26 02:58:08;;;;;;;66.85;33.90;;;6.10;99.90;;;;;;5050883;28;20048;-90
2022/01/26 03:03:24;;;;;;;53.78;24.88;;;4.40;99.90;;;;;;5051409;28;20124;-90
2022/01/26 03:05:57;;;;;;;57.72;29.50;;;6.30;99.90;;;;;;5034864;28;20040;-91
2022/01/26 03:08:32;;;;;;;63.95;30.35;;;6.80;99.90;;;;;;5034740;28;20072;-92
2022/01/26 03:11:03;;;;;;;75.83;40.17;;;6.60;99.90;;;;;;5050311;28;20148;-90
2022/01/26 03:13:32;;;;;;;68.70;34.70;;;4.90;99.90;;;;;;5051175;28;20127;-91
2022/01/26 03:16:05;;;;;;;59.40;29.63;;;7.20;99.90;;;;;;5051473;28;20168;-90
2022/01/26 03:21:06;;;;;;;65.43;32.88;;;4.70;99.90;;;;;;5050739;28;20432;-90
2022/01/26 03:32:04;;;;;;;65.82;33.10;;;6.90;99.90;;;;;;5051202;28;20056;-91
2022/01/26 03:34:21;;;;;;;75.85;33.50;;;7.80;99.90;;;;;;5049811;28;20056;-91
2022/01/26 03:36:51;;;;;;;70.93;32.20;;;7.50;99.90;;;;;;5035155;28;20397;-90
2022/01/26 03:39:20;;;;;;;80.60;39.60;;;7.90;99.90;;;;;;5038284;28;20454;-90
2022/01/26 03:41:52;;;;;;;62.08;31.80;;;3.90;99.90;;;;;;5037685;28;20048;-89
2022/01/26 03:44:18;;;;;;;79.05;36.58;;;6.30;99.90;;;;;;5055171;28;20049;-91
2022/01/26 03:46:45;;;;;;;74.38;35.83;;;6.70;99.90;;;;;;5037376;28;20476;-91
2022/01/26 03:49:11;;;;;;;54.50;26.80;;;5.70;99.90;;;;;;5038297;28;20045;-91
2022/01/26 03:51:38;;;;;;;78.78;38.03;;;7.00;99.90;;;;;;5054833;28;20049;-90
2022/01/26 03:54:04;;;;;;;59.75;26.45;;;8.20;99.90;;;;;;5037769;28;20052;-90
2022/01/26 03:56:31;;;;;;;60.08;29.23;;;6.40;99.90;;;;;;5049707;28;20051;-89
2022/01/26 03:58:56;;;;;;;56.40;25.80;;;7.90;99.90;;;;;;5063662;28;20029;-89
2022/01/26 04:01:23;;;;;;;61.70;30.15;;;5.40;99.90;;;;;;5080151;28;20032;-89
2022/01/26 04:03:49;;;;;;;62.63;28.25;;;4.90;99.90;;;;;;5079708;28;20044;-89
2022/01/26 04:06:16;;;;;;;84.18;40.63;;;5.90;99.90;;;;;;5063306;28;20021;-88
2022/01/26 04:08:43;;;;;;;73.25;33.85;;;8.00;99.90;;;;;;5079928;28;20033;-89
2022/01/26 04:11:30;;;;;;;83.85;40.20;;;6.90;99.90;;;;;;5080159;28;20074;-90
2022/01/26 04:13:58;;;;;;;72.13;34.58;;;7.60;99.90;;;;;;5062840;28;20096;-88
2022/01/26 04:16:24;;;;;;;79.18;38.65;;;5.70;99.90;;;;;;5067938;28;20044;-90
2022/01/26 04:18:52;;;;;;;87.88;38.40;;;6.50;99.90;;;;;;5037539;28;20049;-91
2022/01/26 04:21:30;;;;;;;72.55;37.78;;;7.00;99.90;;;;;;5037715;28;20049;-90
2022/01/26 04:26:30;;;;;;;342.35;52.85;;;5.60;99.90;;;;;;5054075;28;20049;-91
2022/01/26 04:29:01;;;;;;;81.82;38.08;;;6.70;99.90;;;;;;5037443;28;20048;-90
2022/01/26 04:31:27;;;;;;;72.05;35.63;;;8.00;99.90;;;;;;5037653;28;20124;-90
2022/01/26 04:33:53;;;;;;;84.72;40.28;;;6.70;99.90;;;;;;5037344;28;20548;-90
2022/01/26 04:36:27;;;;;;;72.25;31.05;;;6.00;99.90;;;;;;5036950;28;20061;-89
2022/01/26 04:38:57;;;;;;;84.28;41.53;;;7.00;99.90;;;;;;5037360;28;20075;-89
2022/01/26 04:41:37;;;;;;;66.10;32.70;;;6.40;99.90;;;;;;5037776;28;20393;-90
2022/01/26 04:44:10;;;;;;;66.65;34.33;;;6.60;99.90;;;;;;5037117;28;20071;-90
2022/01/26 04:46:37;;;;;;;87.18;42.60;;;5.70;99.90;;;;;;5036929;28;20051;-91
2022/01/26 04:49:03;;;;;;;70.65;34.60;;;6.60;99.90;;;;;;5052067;28;20041;-90
2022/01/26 04:51:30;;;;;;;79.95;36.60;;;6.50;99.90;;;;;;5036962;28;20045;-90
2022/01/26 04:53:56;;;;;;;70.05;33.20;;;7.20;99.90;;;;;;5037230;28;20045;-90
2022/01/26 04:56:22;;;;;;;70.93;35.80;;;7.10;99.90;;;;;;5036336;28;20049;-91
2022/01/26 04:58:47;;;;;;;242.32;45.92;;;6.10;99.90;;;;;;5053691;28;20220;-91
2022/01/26 05:01:13;;;;;;;73.53;34.55;;;7.30;99.90;;;;;;5036765;28;20045;-91
2022/01/26 05:03:39;;;;;;;62.63;30.13;;;6.40;99.90;;;;;;5036861;28;20048;-90
2022/01/26 05:06:04;;;;;;;90.63;40.03;;;6.90;99.90;;;;;;5036548;28;20452;-89
2022/01/26 05:08:30;;;;;;;98.38;43.25;;;8.20;99.90;;;;;;5037050;28;20052;-90
2022/01/26 05:10:56;;;;;;;74.00;35.28;;;6.30;99.90;;;;;;5036781;28;20130;-90
2022/01/26 05:13:22;;;;;;;85.28;38.72;;;6.80;99.90;;;;;;5036961;28;20569;-91
2022/01/26 05:15:48;;;;;;;84.30;40.00;;;5.70;99.90;;;;;;5052646;28;20255;-91
2022/01/26 05:18:13;;;;;;;95.22;41.17;;;7.80;99.90;;;;;;5036460;28;20099;-90
2022/01/26 05:20:39;;;;;;;89.47;41.42;;;5.80;99.90;;;;;;5036578;28;20084;-90
2022/01/26 05:23:06;;;;;;;63.08;27.63;;;4.00;99.90;;;;;;5036696;28;20085;-90
2022/01/26 05:25:31;;;;;;;81.70;33.72;;;6.10;99.90;;;;;;5036929;28;20448;-91
2022/01/26 05:27:57;;;;;;;93.53;42.10;;;4.50;99.90;;;;;;5052851;28;20041;-89
2022/01/26 05:30:24;;;;;;;68.82;34.63;;;6.30;99.90;;;;;;5036388;28;20041;-90
2022/01/26 05:32:50;;;;;;;538.22;58.50;;;6.60;99.90;;;;;;5035914;28;20492;-90
2022/01/26 05:35:16;;;;;;;104.82;42.20;;;4.80;99.90;;;;;;5036361;28;20507;-90
2022/01/26 05:37:42;;;;;;;100.70;39.85;;;7.30;99.90;;;;;;5035614;28;20124;-91
2022/01/26 05:40:09;;;;;;;85.97;36.17;;;6.20;99.90;;;;;;5036148;28;20083;-90
2022/01/26 05:42:36;;;;;;;67.22;29.50;;;5.00;99.90;;;;;;5036310;28;20037;-90
2022/01/26 05:45:05;;;;;;;57.35;27.27;;;5.20;99.90;;;;;;5035770;28;20076;-90
2022/01/26 05:47:33;;;;;;;56.08;26.73;;;5.60;99.90;;;;;;5035755;28;20037;-90
2022/01/26 05:50:00;;;;;;;55.22;27.38;;;5.30;99.90;;;;;;5035577;28;20128;-91
2022/01/26 05:52:26;;;;;;;72.10;30.90;;;6.40;99.90;;;;;;5036210;28;20051;-91
2022/01/26 05:54:52;;;;;;;64.55;30.05;;;6.80;99.90;;;;;;5052504;28;20080;-90
2022/01/26 05:57:18;;;;;;;62.67;30.30;;;;;;;;;;5036192;28;20096;-90
2022/01/26 05:59:44;;;;;;;66.38;29.17;;;5.70;99.90;;;;;;5034704;28;20514;-89
2022/01/26 06:02:10;;;;;;;62.33;29.92;;;7.30;99.90;;;;;;5035840;28;20084;-90
2022/01/26 06:04:36;;;;;;;60.33;29.90;;;6.70;99.90;;;;;;5035700;28;20045;-90
2022/01/26 06:07:02;;;;;;;63.20;30.80;;;7.60;99.90;;;;;;5052488;28;20509;-93
2022/01/26 06:09:28;;;;;;;52.20;26.23;;;5.50;99.90;;;;;;5052615;28;20354;-92
2022/01/26 06:11:53;;;;;;;66.68;29.30;;;5.10;99.90;;;;;;5036343;28;20056;-90
2022/01/26 06:14:19;;;;;;;63.38;29.17;;;5.50;99.90;;;;;;5035764;28;20055;-90
2022/01/26 06:16:45;;;;;;;59.60;28.88;;;7.90;99.90;;;;;;5052217;28;20044;-91
2022/01/26 06:19:11;;;;;;;62.55;31.83;;;7.10;99.90;;;;;;5035728;28;20072;-90
2022/01/26 06:21:36;;;;;;;58.65;29.20;;;6.20;99.90;;;;;;5035078;28;20095;-91
2022/01/26 06:24:02;;;;;;;62.13;30.10;;;5.40;99.90;;;;;;5052639;28;20049;-90
2022/01/26 06:26:28;;;;;;;55.53;28.90;;;5.60;99.90;;;;;;5036817;28;20059;-90
2022/01/26 06:28:54;;;;;;;57.45;28.15;;;4.50;99.90;;;;;;5035095;28;20174;-90
2022/01/26 06:31:20;;;;;;;54.88;26.80;;;5.30;99.90;;;;;;5035489;28;20052;-90
2022/01/26 06:33:47;;;;;;;53.15;24.17;;;8.00;99.90;;;;;;5034878;28;20057;-91
2022/01/26 06:36:15;;;;;;;49.42;24.27;;;5.30;99.90;;;;;;5052416;28;20044;-91
2022/01/26 06:38:42;;;;;;;48.67;24.83;;;7.60;99.90;;;;;;5035337;28;20048;-91
2022/01/26 06:41:09;;;;;;;49.53;25.23;;;5.90;99.90;;;;;;5051862;28;20496;-90
2022/01/26 06:43:43;;;;;;;52.10;25.13;;;5.50;99.90;;;;;;5035031;28;20072;-91
2022/01/26 06:46:09;;;;;;;60.45;27.45;;;5.60;99.90;;;;;;5034949;28;20048;-91
2022/01/26 06:48:56;;;;;;;68.53;29.80;;;6.40;99.90;;;;;;5035269;28;20037;-90
2022/01/26 06:51:22;;;;;;;59.63;28.60;;;5.60;99.90;;;;;;5034364;28;20091;-90
2022/01/26 06:53:48;;;;;;;56.15;29.23;;;6.10;99.90;;;;;;5051150;28;20152;-90
2022/01/26 06:56:14;;;;;;;68.63;32.72;;;5.50;99.90;;;;;;5035008;28;20052;-90
2022/01/26 06:58:39;;;;;;;67.38;33.05;;;5.30;99.90;;;;;;5034707;28;20068;-92
2022/01/26 07:01:05;;;;;;;64.05;32.63;;;6.70;99.90;;;;;;5051657;28;20127;-90
2022/01/26 07:03:31;;;;;;;70.10;32.67;;;5.80;99.90;;;;;;5034950;28;20334;-90
2022/01/26 07:05:57;;;;;;;73.80;32.85;;;6.90;99.90;;;;;;5034940;28;20045;-90
2022/01/26 07:08:22;;;;;;;63.80;31.45;;;6.90;99.90;;;;;;5034790;28;20048;-90
2022/01/26 07:10:51;;;;;;;65.72;31.05;;;7.20;99.90;;;;;;5034592;28;20060;-90
2022/01/26 07:13:22;;;;;;;70.47;32.55;;;5.50;99.90;;;;;;5034351;28;20056;-92
2022/01/26 07:25:04;;;;;;;60.05;28.40;;;6.90;99.90;;;;;;5025592;28;20083;-92
2022/01/26 07:27:30;;;;;;;58.17;24.67;;;4.20;99.90;;;;;;5036620;28;20064;-91
2022/01/26 07:29:56;;;;;;;49.83;21.98;;;4.40;99.90;;;;;;5035910;28;20490;-90
2022/01/26 07:32:24;;;;;;;66.50;31.17;;;5.50;99.90;;;;;;5034625;28;20048;-89
2022/01/26 07:34:52;;;;;;;81.13;36.00;;;5.00;99.90;;;;;;5051954;28;20392;-93
2022/01/26 07:37:20;;;;;;;70.28;32.83;;;7.40;99.90;;;;;;5034366;28;20076;-92
2022/01/26 07:40:00;;;;;;;85.88;36.58;;;5.30;99.90;;;;;;5034798;28;20053;-88
2022/01/26 07:42:28;;;;;;;80.82;34.25;;;7.90;99.90;;;;;;5035044;28;20501;-92
2022/01/26 07:45:03;;;;;;;79.97;33.53;;;7.40;99.90;;;;;;5034740;28;20048;-87
2022/01/26 07:47:31;;;;;;;70.05;29.35;;;7.00;99.90;;;;;;5035262;28;20056;-92
2022/01/26 07:49:59;;;;;;;66.60;27.65;;;4.00;99.90;;;;;;5035401;28;20136;-88
2022/01/26 07:52:26;;;;;;;65.07;27.70;;;7.10;99.90;;;;;;5052105;28;20060;-85
2022/01/26 07:55:25;;;;;;;76.95;33.58;;;7.00;99.90;;;;;;5052881;28;20518;-94
2022/01/26 07:58:08;;;;;;;67.40;30.23;;;6.90;99.90;;;;;;4990708;28;20052;-94
2022/01/26 08:00:42;;;;;;;59.22;27.58;;;5.90;99.90;;;;;;5035300;28;20048;-94
2022/01/26 08:03:08;;;;;;;63.13;27.17;;;6.30;99.90;;;;;;5035586;28;20049;-90
2022/01/26 08:05:39;;;;;;;59.63;27.73;;;6.50;99.90;;;;;;5035402;28;20454;-96
2022/01/26 08:08:05;;;;;;;68.68;28.92;;;7.10;99.90;;;;;;5050454;28;20045;-90
2022/01/26 08:10:34;;;;;;;62.50;29.83;;;6.20;99.90;;;;;;5052322;28;20052;-96
2022/01/26 08:13:00;;;;;;;73.70;26.65;;;6.10;99.90;;;;;;5037452;28;20134;-87
2022/01/26 08:15:26;;;;;;;63.55;31.05;;;7.60;99.90;;;;;;5052761;28;20077;-89
2022/01/26 08:17:52;;;;;;;68.78;29.58;;;6.00;99.90;;;;;;5035065;28;20132;-88
2022/01/26 08:20:22;;;;;;;52.58;23.67;;;5.60;99.90;;;;;;5052205;28;20140;-93
2022/01/26 08:23:21;;;;;;;;;;;;;;;;;;;;;
2022/01/26 08:30:07;;;;;;;48.78;22.35;;;5.50;99.90;;;;;;5058993;28;20053;-92
2022/01/26 08:44:13;;;;;;;60.22;26.20;;;5.70;99.90;;;;;;5056237;28;20675;-88
2022/01/26 08:50:28;;;;;;;55.03;27.17;;;6.40;99.90;;;;;;5057097;28;20075;-90
2022/01/26 08:52:54;;;;;;;73.25;29.77;;;7.70;99.90;;;;;;5022492;28;20048;-92
2022/01/26 08:55:30;;;;;;;;;;;;;;;;;;;;;
2022/01/26 08:57:59;;;;;;;;;;;5.40;99.90;;;;;;5038802;28;20037;-89
2022/01/26 09:00:37;;;;;;;;;;;;;;;;;;;;;
2022/01/26 09:03:24;;;;;;;55.47;26.52;;;7.20;99.90;;;;;;5056107;28;20036;-88
2022/01/26 09:14:07;;;;;;;;;;;;;;;;;;;;;
2022/01/26 09:25:01;;;;;;;71.32;29.23;;;5.90;99.90;;;;;;4996045;28;20041;-93
2022/01/26 09:32:08;;;;;;;50.95;22.40;;;6.20;99.90;;;;;;4994496;28;20129;-93
2022/01/26 09:38:43;;;;;;;;;;;;;;;;;;;;;
2022/01/26 09:52:05;;;;;;;60.00;25.52;;;5.40;99.90;;;;;;4948452;28;20081;-95
2022/01/26 10:02:44;;;;;;;55.70;26.95;;;4.90;99.90;;;;;;4902779;28;20087;-93
2022/01/26 10:05:24;;;;;;;50.30;24.30;;;5.80;99.90;;;;;;4867196;29;20056;-91
2022/01/26 10:15:40;;;;;;;52.83;22.80;;;4.50;99.90;;;;;;4914774;29;20154;-92
2022/01/26 10:18:56;;;;;;;65.28;30.35;;;6.40;99.90;;;;;;5030107;28;20141;-94
2022/01/26 10:21:23;;;;;;;41.78;20.08;;;4.10;99.90;;;;;;5034027;28;20064;-92
2022/01/26 10:23:55;;;;;;;327.75;40.55;;;4.70;99.90;;;;;;5044180;28;20075;-94
2022/01/26 10:30:45;;;;;;;51.30;21.35;;;5.00;99.90;;;;;;5079663;28;20480;-94
2022/01/26 10:34:02;;;;;;;;;;;;;;;;;;;;;
2022/01/26 10:37:10;;;;;;;;;;;;;;;;;;;;;
2022/01/26 11:09:20;;;;;;;57.60;22.35;;;5.80;99.90;;;;;;4919749;29;20069;-93
2022/01/26 11:12:45;;;;;;;63.38;27.83;;;4.80;99.90;;;;;;4879947;29;20048;-94
2022/01/26 11:15:17;;;;;;;56.72;26.75;;;5.20;99.90;;;;;;4861765;29;20057;-93
2022/01/26 11:18:09;;;;;;;70.55;27.90;;;8.00;99.90;;;;;;4865359;29;20044;-92
2022/01/26 11:24:23;;;;;;;53.28;24.77;;;5.70;99.90;;;;;;4789619;29;20069;-93
2022/01/26 11:27:05;;;;;;;50.55;20.85;;;6.80;99.90;;;;;;4771018;30;20063;-92
2022/01/26 11:33:41;;;;;;;46.35;19.02;;;6.00;99.90;;;;;;4798197;29;20118;-95
2022/01/26 12:01:53;;;;;;;33.97;16.15;;;7.00;99.90;;;;;;5509310;23;20064;-91
2022/01/26 12:04:33;;;;;;;29.75;14.13;;;6.60;99.90;;;;;;4882560;29;20052;-92
2022/01/26 12:11:13;;;;;;;45.35;15.63;;;7.00;99.90;;;;;;4875414;29;20063;-92
2022/01/26 12:13:51;;;;;;;41.40;17.90;;;6.70;99.90;;;;;;4904998;29;20104;-95
2022/01/26 12:20:08;;;;;;;33.15;15.05;;;7.30;99.90;;;;;;4873675;29;20052;-94
2022/01/26 12:32:18;;;;;;;34.58;15.73;;;8.70;99.90;;;;;;4904534;29;20060;-93
2022/01/26 12:34:59;;;;;;;36.15;16.85;;;7.40;99.90;;;;;;4890824;29;20108;-94
2022/01/26 12:37:55;;;;;;;35.13;15.18;;;8.00;99.90;;;;;;4895601;29;20404;-96
2022/01/26 12:44:17;;;;;;;32.72;14.60;;;8.10;99.90;;;;;;4911978;29;20068;-96
2022/01/26 12:47:49;;;;;;;38.53;16.00;;;7.40;99.90;;;;;;4889175;29;20092;-92
2022/01/26 12:50:32;;;;;;;41.13;16.90;;;8.20;99.90;;;;;;4847800;29;20057;-90
2022/01/26 12:52:58;;;;;;;42.25;17.05;;;6.10;99.90;;;;;;4862951;29;20415;-92
2022/01/26 12:55:49;;;;;;;;;;;;;;;;;;;;;
2022/01/26 12:58:27;;;;;;;36.63;15.65;;;7.10;99.90;;;;;;4906824;29;20056;-95
2022/01/26 13:01:01;;;;;;;33.22;15.15;;;8.50;99.90;;;;;;4889328;29;20060;-91
2022/01/26 13:15:23;;;;;;;27.52;12.57;;;6.40;99.90;;;;;;4845600;29;20541;-96
2022/01/26 13:22:56;;;;;;;24.67;11.38;;;5.80;99.90;;;;;;4838078;29;20045;-82
2022/01/26 13:26:37;;;;;;;24.35;12.60;;;6.40;99.90;;;;;;4814189;29;20065;-96
2022/01/26 13:29:19;;;;;;;35.38;14.32;;;6.20;99.90;;;;;;4826291;29;20109;-89
2022/01/26 13:32:47;;;;;;;28.73;11.82;;;7.60;99.90;;;;;;4845558;29;20061;-95
2022/01/26 13:35:58;;;;;;;32.70;12.05;;;7.10;99.90;;;;;;4914491;29;20076;-96
2022/01/26 13:49:39;;;;;;;34.80;14.13;;;5.80;99.90;;;;;;4813733;29;20085;-88
2022/01/26 13:56:14;;;;;;;31.55;13.30;;;6.90;99.90;;;;;;4862606;29;20057;-95
2022/01/26 13:59:08;;;;;;;32.65;12.30;;;5.70;99.90;;;;;;4831955;29;20118;-93
2022/01/26 14:01:49;;;;;;;28.15;12.43;;;7.90;99.90;;;;;;4849788;29;20065;-88
2022/01/26 14:11:19;;;;;;;45.22;18.42;;;7.80;99.90;;;;;;4890055;29;20054;-87
2022/01/26 14:27:39;;;;;;;47.00;18.10;;;7.00;99.90;;;;;;4854910;29;20057;-94
2022/01/26 15:00:02;;;;;;;46.45;18.33;;;6.90;99.90;;;;;;4883526;29;20053;-86
2022/01/26 15:12:10;;;;;;;39.08;18.77;;;8.20;99.90;;;;;;4867746;29;20139;-89
2022/01/26 15:29:54;;;;;;;43.08;18.15;;;7.50;99.90;;;;;;4862745;29;20060;-89
2022/01/26 15:32:24;;;;;;;42.47;20.65;;;;;;;;;;4915671;29;20055;-90
2022/01/26 15:43:53;;;;;;;49.17;17.17;;;6.70;99.90;;;;;;4915795;29;20062;-94
2022/01/26 16:36:09;;;;;;;;;;;;;;;;;;;;;
2022/01/26 17:03:41;;;;;;;;;;;;;;;;;;;;;
2022/01/26 17:46:56;;;;;;;26.98;13.23;;;7.30;99.90;;;;;;4945201;28;20035;-94
2022/01/26 17:55:13;;;;;;;39.30;17.55;;;6.40;99.90;;;;;;4943528;28;20051;-92
2022/01/26 18:15:38;;;;;;;35.60;16.08;;;6.40;99.90;;;;;;4900764;29;20060;-92
2022/01/26 18:49:36;;;;;;;42.35;16.45;;;8.40;99.90;;;;;;4883147;29;20044;-94
2022/01/26 18:52:02;;;;;;;40.20;15.93;;;7.50;99.90;;;;;;4866564;29;20474;-91
2022/01/26 18:54:32;;;;;;;41.30;17.10;;;7.10;99.90;;;;;;4865693;29;20056;-90
2022/01/26 18:57:00;;;;;;;44.22;16.60;;;8.20;99.90;;;;;;4881723;29;20044;-92
2022/01/26 18:59:27;;;;;;;37.97;17.25;;;8.20;99.90;;;;;;4866693;29;20512;-91
2022/01/26 19:01:55;;;;;;;38.95;16.60;;;7.60;99.90;;;;;;4866630;29;20048;-92
2022/01/26 19:04:28;;;;;;;43.38;18.45;;;7.70;99.90;;;;;;4866525;29;20056;-92
2022/01/26 19:06:54;;;;;;;35.28;17.15;;;7.00;99.90;;;;;;4866456;29;20387;-91
2022/01/26 19:09:25;;;;;;;32.55;16.80;;;9.30;99.90;;;;;;4881850;29;20453;-91
2022/01/26 19:11:52;;;;;;;40.45;17.35;;;7.00;99.90;;;;;;4866280;29;20075;-91
2022/01/26 19:14:21;;;;;;;40.15;16.23;;;6.90;99.90;;;;;;4881869;29;20100;-91
2022/01/26 19:16:53;;;;;;;46.35;18.20;;;8.30;99.90;;;;;;4866593;29;20048;-91
2022/01/26 19:19:43;;;;;;;34.15;14.82;;;7.90;99.90;;;;;;4866344;29;20108;-92
2022/01/26 19:22:33;;;;;;;27.35;12.23;;;6.30;99.90;;;;;;4866409;29;20064;-91
2022/01/26 19:25:15;;;;;;;42.88;15.77;;;7.70;99.90;;;;;;4881620;29;20474;-90
2022/01/26 19:27:58;;;;;;;42.35;16.45;;;7.20;99.90;;;;;;4865989;29;20055;-91
2022/01/26 19:31:43;;;;;;;34.67;16.33;;;6.50;99.90;;;;;;4875541;29;20389;-91
2022/01/26 19:42:35;;;;;;;41.28;15.70;;;6.90;99.90;;;;;;4902692;29;20052;-94
2022/01/26 19:44:16;;;;;;;40.78;15.30;;;6.20;99.90;;;;;;4901974;29;20055;-94
2022/01/26 19:47:16;;;;;;;37.72;15.82;;;8.50;99.90;;;;;;4903285;29;20044;-94
2022/01/26 19:52:32;;;;;;;33.28;14.13;;;7.70;99.90;;;;;;4903079;29;20119;-94
2022/01/26 19:55:10;;;;;;;;;;;;;;;;;;;;;
2022/01/26 19:57:42;;;;;;;45.75;16.08;;;7.60;99.90;;;;;;4902707;29;20063;-95
2022/01/26 20:00:09;;;;;;;44.30;16.27;;;7.90;99.90;;;;;;4885721;29;20048;-95
2022/01/26 20:02:34;;;;;;;37.90;14.15;;;7.20;99.90;;;;;;4885370;29;20056;-93
2022/01/26 20:05:02;;;;;;;41.00;15.95;;;7.70;99.90;;;;;;4884877;29;20486;-94
2022/01/26 20:07:30;;;;;;;40.03;16.55;;;7.30;99.90;;;;;;4884970;29;20048;-94
2022/01/26 20:10:00;;;;;;;41.92;16.40;;;8.40;99.90;;;;;;4885489;29;20044;-93
2022/01/26 20:12:36;;;;;;;40.97;16.55;;;8.80;99.90;;;;;;4885325;29;20072;-94
2022/01/26 20:15:02;;;;;;;35.25;15.85;;;7.80;99.90;;;;;;4885352;29;20049;-94
2022/01/26 20:17:28;;;;;;;42.13;14.95;;;8.50;99.90;;;;;;4886125;29;20048;-95
2022/01/26 20:20:01;;;;;;;41.08;15.73;;;7.90;99.90;;;;;;4888832;29;20048;-95
2022/01/26 20:22:30;;;;;;;40.72;16.90;;;7.90;99.90;;;;;;4890016;29;20047;-94
2022/01/26 20:24:59;;;;;;;43.92;17.88;;;8.60;99.90;;;;;;4890854;29;20139;-95
2022/01/26 20:27:36;;;;;;;41.75;16.45;;;8.70;99.90;;;;;;4892020;29;20044;-94
2022/01/26 20:30:13;;;;;;;36.85;13.27;;;7.50;99.90;;;;;;4890768;29;20401;-93
2022/01/26 20:32:42;;;;;;;47.75;16.45;;;8.30;99.90;;;;;;4890577;29;20044;-95
2022/01/26 20:35:11;;;;;;;45.75;15.98;;;8.50;99.90;;;;;;4890544;29;20066;-94
2022/01/26 20:37:40;;;;;;;34.63;13.25;;;7.40;99.90;;;;;;4890605;29;20189;-94
2022/01/26 20:40:13;;;;;;;35.30;13.40;;;7.20;99.90;;;;;;4890055;29;20511;-95
2022/01/26 20:42:45;;;;;;;38.83;14.68;;;8.50;99.90;;;;;;4889983;29;20103;-95
2022/01/26 20:45:19;;;;;;;41.65;13.23;;;8.50;99.90;;;;;;4890310;29;20056;-94
2022/01/26 20:47:49;;;;;;;40.67;15.00;;;7.00;99.90;;;;;;4890268;29;20075;-94
2022/01/26 20:50:42;;;;;;;39.70;13.02;;;6.80;99.90;;;;;;4890644;29;20048;-94
2022/01/26 20:53:28;;;;;;;31.52;12.65;;;7.70;99.90;;;;;;4889660;29;20080;-95
2022/01/26 20:56:04;;;;;;;40.45;13.82;;;8.40;99.90;;;;;;4889121;29;20059;-94
2022/01/26 20:58:41;;;;;;;44.42;14.13;;;7.00;99.90;;;;;;4889759;29;20059;-95
2022/01/26 21:05:05;;;;;;;;;;;;;;;;;;;;;
2022/01/26 21:09:01;;;;;;;;;;;;;;;;;;;;;
2022/01/26 21:13:07;;;;;;;;;;;;;;;;;;;;;
2022/01/26 21:41:40;;;;;;;28.20;9.45;;;7.40;99.90;;;;;;4791557;29;20065;-93
2022/01/26 21:44:09;;;;;;;35.78;10.70;;;8.40;99.90;;;;;;4796310;29;20062;-93
2022/01/26 21:46:43;;;;;;;26.60;9.85;;;8.50;99.90;;;;;;4863222;29;20501;-93
2022/01/26 21:49:18;;;;;;;30.98;9.23;;;8.20;99.90;;;;;;4868951;29;20048;-93
2022/01/26 21:51:46;;;;;;;25.52;9.57;;;7.90;99.90;;;;;;4869080;29;20055;-94
2022/01/26 21:54:25;;;;;;;;;;;;;;;;;;;;;
2022/01/26 21:57:04;;;;;;;27.88;8.52;;;7.10;99.90;;;;;;4884318;29;20490;-93
2022/01/26 21:59:30;;;;;;;22.23;8.60;;;6.90;99.90;;;;;;4869171;29;20561;-93
2022/01/26 22:02:19;;;;;;;30.45;8.88;;;10.10;99.90;;;;;;4868823;29;20049;-94
2022/01/26 22:05:10;;;;;;;25.63;9.25;;;6.30;99.90;;;;;;4884238;29;20068;-95
2022/01/26 22:07:49;;;;;;;28.17;9.05;;;7.20;99.90;;;;;;4883457;29;20056;-94
2022/01/26 22:10:34;;;;;;;26.65;10.52;;;7.50;99.90;;;;;;4868719;29;20057;-93
2022/01/26 22:13:28;;;;;;;37.40;10.45;;;5.60;99.90;;;;;;4868671;29;20504;-94
2022/01/26 22:16:05;;;;;;;21.58;9.00;;;7.40;99.90;;;;;;4868596;29;20048;-94
2022/01/26 22:22:34;;;;;;;36.22;11.00;;;8.40;99.90;;;;;;4829760;29;20056;-94
2022/01/26 22:25:25;;;;;;;24.60;9.90;;;7.70;99.90;;;;;;4883507;29;20071;-94
2022/01/26 22:28:12;;;;;;;;;;;;;;;;;;;;;
2022/01/26 22:30:44;;;;;;;35.97;11.35;;;9.50;99.90;;;;;;4898959;29;20049;-93
2022/01/26 22:33:26;;;;;;;44.10;12.45;;;8.60;99.90;;;;;;4869499;29;20051;-93
2022/01/26 22:36:09;;;;;;;;;;;;;;;;;;;;;
2022/01/26 22:38:51;;;;;;;;;;;;;;;;;;;;;
2022/01/26 22:41:49;;;;;;;32.00;10.65;;;7.70;99.90;;;;;;4881186;29;20052;-94
2022/01/26 23:12:02;;;;;;;;;;;;;;;;;;;;;
